Time;durP1;ratioP1;P1;durP2;ratioP2;P2;SDS_P1;SDS_P2;PMS_P1;PMS_P2;Temp;Humidity;BMP_temperature;BMP_pressure;BME280_temperature;BME280_humidity;BME280_pressure;Samples;Min_cycle;Max_cycle;Signal;HPM_P1;HPM_P2
2022/05/14 00:01:08;;;;;;;5.78;3.95;;;;;;;13.64;70.22;96795.41;5008428;28;20490;-65
2022/05/14 00:03:38;;;;;;;5.05;3.15;;;;;;;13.81;70.70;96832.03;5026526;28;20454;-65
2022/05/14 00:06:08;;;;;;;5.00;3.35;;;;;;;13.65;71.43;96836.00;5026133;28;20114;-65
2022/05/14 00:08:36;;;;;;;4.57;2.80;;;;;;;13.29;71.85;96806.47;5040977;28;20061;-65
2022/05/14 00:13:50;;;;;;;4.63;3.22;;;;;;;13.70;71.13;96832.78;5025910;28;20104;-65
2022/05/14 00:16:18;;;;;;;5.07;3.38;;;;;;;13.39;72.34;96814.06;5025697;28;20049;-66
2022/05/14 00:18:45;;;;;;;6.28;3.40;;;;;;;13.40;73.21;96826.00;5008428;28;20143;-65
2022/05/14 00:21:13;;;;;;;5.80;3.53;;;;;;;13.49;72.26;96821.66;5025624;28;20086;-64
2022/05/14 00:23:39;;;;;;;4.75;2.97;;;;;;;13.63;71.83;96827.25;5025708;28;20053;-65
2022/05/14 00:26:06;;;;;;;6.25;3.35;;;;;;;13.54;72.25;96829.63;5025678;28;20053;-66
2022/05/14 00:28:33;;;;;;;5.28;3.35;;;;;;;13.22;72.22;96772.28;5007624;28;20057;-65
2022/05/14 00:31:00;;;;;;;6.32;3.20;;;;;;;13.68;71.51;96817.69;5007312;28;20053;-66
2022/05/14 00:33:27;;;;;;;4.00;3.10;;;;;;;13.27;71.69;96769.94;5040303;28;20514;-65
2022/05/14 00:35:53;;;;;;;6.60;3.45;;;;;;;13.58;71.80;96819.28;5025617;28;20055;-65
2022/05/14 00:38:20;;;;;;;4.90;3.05;;;;;;;13.37;72.38;96796.97;5025432;28;20245;-65
2022/05/14 00:40:59;;;;;;;6.35;3.10;;;;;;;13.48;72.17;96808.91;5024745;28;20053;-66
2022/05/14 00:43:26;;;;;;;4.30;3.03;;;;;;;12.96;72.26;96742.78;5025099;28;20068;-66
2022/05/14 00:46:07;;;;;;;7.00;3.88;;;;;;;13.33;73.30;96807.28;5007285;28;20049;-65
2022/05/14 00:48:41;;;;;;;4.15;2.90;;;;;;;12.50;73.36;96691.03;5007515;28;20069;-65
2022/05/14 00:51:11;;;;;;;;;;;;;;;13.24;73.40;96809.66;5020407;28;20057;-65
2022/05/14 00:53:44;;;;;;;8.07;3.58;;;;;;;13.16;73.70;96810.84;5005455;28;19925;-64
2022/05/14 00:56:14;;;;;;;7.05;3.60;;;;;;;13.15;74.02;96809.22;5004993;28;20057;-65
2022/05/14 00:58:48;;;;;;;6.20;3.63;;;;;;;13.10;74.36;96815.16;5004921;28;20516;-65
2022/05/14 01:01:15;;;;;;;5.72;3.42;;;;;;;12.66;74.74;96747.84;5004677;28;20543;-66
2022/05/14 01:03:42;;;;;;;6.03;3.25;;;;;;;13.16;74.23;96812.81;5006332;28;20064;-65
2022/05/14 01:06:14;;;;;;;5.30;3.00;;;;;;;13.09;74.14;96813.56;5006828;28;20534;-65
2022/05/14 01:08:42;;;;;;;5.10;3.60;;;;;;;12.95;74.59;96810.72;5024766;28;20069;-65
2022/05/14 01:11:11;;;;;;;5.45;3.47;;;;;;;12.66;74.60;96783.19;5024747;28;20123;-65
2022/05/14 01:13:38;;;;;;;7.40;4.43;;;;;;;12.73;75.81;96806.25;5024655;28;20508;-65
2022/05/14 01:16:05;;;;;;;5.88;3.95;;;;;;;12.26;75.96;96714.75;5024278;28;20077;-65
2022/05/14 01:18:35;;;;;;;5.05;3.45;;;;;;;12.92;76.06;96807.91;5024610;28;20045;-65
2022/05/14 01:21:08;;;;;;;5.40;3.25;;;;;;;12.97;75.41;96810.31;5024319;28;20060;-66
2022/05/14 01:26:46;;;;;;;4.72;3.28;;;;;;;12.60;75.40;96785.53;5024925;28;20088;-65
2022/05/14 01:29:20;;;;;;;4.88;3.40;;;;;;;12.67;75.71;96791.16;5024606;28;20053;-65
2022/05/14 01:31:49;;;;;;;4.95;3.47;;;;;;;12.77;75.57;96826.50;5024575;28;20527;-65
2022/05/14 01:34:20;;;;;;;6.45;3.50;;;;;;;12.70;75.82;96820.94;5006316;28;20118;-65
2022/05/14 01:36:47;;;;;;;5.50;3.53;;;;;;;12.75;76.05;96812.22;5024182;28;20225;-65
2022/05/14 01:39:14;;;;;;;5.25;3.53;;;;;;;12.63;76.72;96820.88;5006157;28;20045;-66
2022/05/14 01:41:41;;;;;;;6.95;3.97;;;;;;;12.61;77.42;96814.94;5006680;28;20053;-65
2022/05/14 01:44:08;;;;;;;5.07;3.70;;;;;;;12.66;77.41;96822.88;5024495;28;20072;-65
2022/05/14 01:46:35;;;;;;;6.75;4.00;;;;;;;12.38;77.22;96760.84;5024171;28;20060;-65
2022/05/14 01:49:03;;;;;;;7.78;4.25;;;;;;;12.61;77.81;96814.94;5023907;28;20435;-66
2022/05/14 01:51:31;;;;;;;7.18;4.07;;;;;;;12.54;78.31;96819.63;5023343;28;20577;-65
2022/05/14 01:53:57;;;;;;;6.43;4.07;;;;;;;12.44;79.36;96815.63;5005593;28;20061;-65
2022/05/14 01:56:24;;;;;;;7.18;4.30;;;;;;;12.42;79.57;96811.63;5023399;28;20049;-65
2022/05/14 01:58:51;;;;;;;5.90;4.15;;;;;;;11.99;79.24;96743.94;5006078;28;20053;-65
2022/05/14 02:01:24;;;;;;;5.30;3.30;;;;;;;12.38;79.13;96819.94;5023809;28;20052;-65
2022/05/14 02:03:57;;;;;;;6.95;4.05;;;;;;;11.86;78.20;96737.09;5023933;28;20056;-65
2022/05/14 02:06:25;;;;;;;6.68;4.47;;;;;;;12.01;79.03;96772.09;5023681;28;20057;-66
2022/05/14 02:08:52;;;;;;;6.00;3.97;;;;;;;11.51;79.39;96678.53;5024222;28;20050;-66
2022/05/14 02:11:21;;;;;;;6.55;3.88;;;;;;;12.35;78.72;96806.84;4993842;28;20061;-65
2022/05/14 02:13:49;;;;;;;8.40;4.03;;;;;;;11.91;78.95;96747.84;4984864;28;20054;-65
2022/05/14 02:16:16;;;;;;;6.65;3.97;;;;;;;12.29;79.35;96808.38;4984544;28;20054;-65
2022/05/14 02:18:43;;;;;;;5.50;4.20;;;;;;;11.95;79.95;96774.44;4982864;28;20058;-65
2022/05/14 02:21:11;;;;;;;8.57;4.43;;;;;;;11.96;80.13;96792.69;4984543;28;20077;-65
2022/05/14 02:23:38;;;;;;;4.70;3.70;;;;;;;12.25;79.62;96804.78;4983035;28;20046;-65
2022/05/14 02:26:11;;;;;;;11.90;4.63;;;;;;;12.27;79.44;96805.19;4984203;28;20064;-65
2022/05/14 02:28:39;;;;;;;7.85;4.10;;;;;;;12.14;80.42;96796.38;4984345;28;20058;-66
2022/05/14 02:31:06;;;;;;;5.82;3.50;;;;;;;11.69;79.94;96710.03;4982667;28;20069;-66
2022/05/14 02:33:33;;;;;;;7.63;3.78;;;;;;;12.29;79.42;96797.28;4984380;28;20503;-66
2022/05/14 02:36:00;;;;;;;6.75;3.72;;;;;;;12.30;79.13;96804.41;4984234;28;20523;-66
2022/05/14 02:38:28;;;;;;;7.53;4.10;;;;;;;12.15;79.43;96795.19;4983922;28;20058;-66
2022/05/14 02:40:57;;;;;;;4.40;3.60;;;;;;;12.12;79.61;96803.53;4983842;28;20054;-65
2022/05/14 02:43:25;;;;;;;6.50;4.50;;;;;;;12.12;79.61;96809.84;4984221;28;20453;-64
2022/05/14 02:45:51;;;;;;;5.60;4.18;;;;;;;12.07;80.35;96812.19;4984451;28;20054;-65
2022/05/14 02:48:18;;;;;;;6.35;4.90;;;;;;;12.11;80.17;96810.25;4982825;28;20081;-66
2022/05/14 02:50:45;;;;;;;9.82;4.30;;;;;;;12.06;80.05;96796.75;4982621;28;20731;-65
2022/05/14 02:53:12;;;;;;;8.15;4.68;;;;;;;11.54;80.67;96738.81;4982577;28;20052;-65
2022/05/14 02:55:38;;;;;;;6.80;4.10;;;;;;;12.03;80.19;96791.94;4984285;28;20054;-65
2022/05/14 02:58:05;;;;;;;5.72;3.55;;;;;;;11.70;81.53;96767.09;4984280;28;20058;-65
2022/05/14 03:00:32;;;;;;;5.50;3.90;;;;;;;11.97;81.21;96774.06;4984029;28;20061;-62
2022/05/14 03:02:58;;;;;;;5.30;3.83;;;;;;;11.68;80.45;96722.31;4983979;28;20054;-61
2022/05/14 03:05:27;;;;;;;6.45;3.83;;;;;;;12.05;79.96;96781.25;4985458;28;20557;-61
2022/05/14 03:07:54;;;;;;;10.25;4.20;;;;;;;12.08;80.49;96791.56;4988161;28;20050;-61
2022/05/14 03:10:20;;;;;;;5.60;4.18;;;;;;;12.09;80.53;96799.50;4987286;28;20061;-61
2022/05/14 03:12:47;;;;;;;5.35;3.58;;;;;;;12.13;80.10;96799.56;5026602;28;20119;-61
2022/05/14 03:15:14;;;;;;;6.10;4.25;;;;;;;12.06;80.55;96791.19;5027012;28;20049;-64
2022/05/14 03:17:41;;;;;;;5.07;3.63;;;;;;;11.67;80.76;96765.09;5026664;28;20128;-61
2022/05/14 03:20:11;;;;;;;7.63;4.35;;;;;;;11.71;80.44;96718.78;5026773;28;20045;-64
2022/05/14 03:22:41;;;;;;;7.25;4.20;;;;;;;12.14;80.28;96790.84;5008965;28;20054;-61
2022/05/14 03:25:09;;;;;;;8.75;4.60;;;;;;;12.14;81.10;96795.56;5009240;28;20064;-62
2022/05/14 03:27:37;;;;;;;5.05;4.05;;;;;;;11.65;81.65;96717.53;5026429;28;20137;-63
2022/05/14 03:30:04;;;;;;;5.50;4.25;;;;;;;12.35;80.70;96794.91;5026210;28;20053;-64
2022/05/14 03:32:31;;;;;;;6.90;3.63;;;;;;;12.02;80.02;96743.16;5026107;28;20053;-62
2022/05/14 03:35:00;;;;;;;7.13;4.18;;;;;;;12.43;79.94;96800.13;5026797;28;20111;-62
2022/05/14 03:37:26;;;;;;;7.53;4.22;;;;;;;12.32;80.38;96788.16;5008840;28;20064;-60
2022/05/14 03:39:53;;;;;;;6.18;4.22;;;;;;;12.34;80.36;96788.59;5026841;28;20053;-60
2022/05/14 03:42:20;;;;;;;7.28;4.15;;;;;;;12.40;80.36;96792.59;5041642;28;20068;-61
2022/05/14 03:44:48;;;;;;;5.20;3.88;;;;;;;12.25;79.04;96746.47;5026158;28;20063;-63
2022/05/14 03:47:15;;;;;;;5.38;3.97;;;;;;;12.28;78.60;96734.59;5026020;28;20084;-62
2022/05/14 03:49:42;;;;;;;6.22;3.70;;;;;;;12.93;77.94;96804.75;5041130;28;20056;-62
2022/05/14 03:52:10;;;;;;;4.90;3.70;;;;;;;13.09;77.26;96805.25;5025578;28;20054;-62
2022/05/14 03:54:38;;;;;;;6.35;3.50;;;;;;;13.19;77.02;96801.69;5026265;28;20056;-61
2022/05/14 03:57:08;;;;;;;6.80;3.55;;;;;;;12.77;77.10;96745.91;5025682;28;20668;-60
2022/05/14 03:59:35;;;;;;;12.20;3.50;;;;;;;13.28;76.42;96809.66;5026349;28;20057;-60
2022/05/14 04:02:03;;;;;;;6.28;4.43;;;;;;;13.34;76.44;96822.78;5026190;28;20064;-61
2022/05/14 04:04:30;;;;;;;6.32;4.28;;;;;;;13.46;76.29;96811.31;5025983;28;20045;-61
2022/05/14 04:06:58;;;;;;;6.97;5.03;;;;;;;13.54;76.16;96823.25;5040750;28;20439;-61
2022/05/14 04:09:25;;;;;;;6.60;5.10;;;;;;;13.12;76.10;96748.06;5040825;28;20049;-60
2022/05/14 04:11:53;;;;;;;7.00;4.03;;;;;;;13.64;76.25;96817.69;5025235;28;20069;-60
2022/05/14 04:14:21;;;;;;;8.95;5.10;;;;;;;13.41;75.29;96763.59;5025747;28;20053;-61
2022/05/14 04:16:49;;;;;;;9.25;4.82;;;;;;;13.42;74.25;96760.41;5024989;28;20069;-66
2022/05/14 04:19:16;;;;;;;5.60;4.60;;;;;;;13.86;74.64;96828.84;5025787;28;20064;-66
2022/05/14 04:21:42;;;;;;;8.82;5.03;;;;;;;14.13;73.88;96816.13;5040870;28;20060;-64
2022/05/14 04:24:09;;;;;;;8.38;4.68;;;;;;;14.23;72.59;96804.97;5025581;28;20075;-66
2022/05/14 04:26:36;;;;;;;7.72;5.50;;;;;;;13.94;73.12;96746.91;5007456;28;20064;-66
2022/05/14 04:29:02;;;;;;;6.50;4.50;;;;;;;14.48;72.75;96830.06;5007499;28;20045;-65
2022/05/14 04:31:29;;;;;;;11.85;5.03;;;;;;;14.55;72.68;96816.91;5025003;28;20527;-64
2022/05/14 04:33:57;;;;;;;6.60;4.28;;;;;;;14.78;72.15;96816.41;5025851;28;20055;-64
2022/05/14 04:36:23;;;;;;;7.22;4.53;;;;;;;14.81;71.09;96787.75;5007682;28;20062;-65
2022/05/14 04:38:50;;;;;;;8.45;4.70;;;;;;;15.12;70.58;96818.31;5025446;28;20103;-65
2022/05/14 04:41:18;;;;;;;6.72;5.15;;;;;;;15.20;69.83;96805.13;5007593;28;20057;-65
2022/05/14 04:43:45;;;;;;;10.00;4.68;;;;;;;15.72;68.38;96823.59;5007140;28;20370;-66
2022/05/14 04:46:11;;;;;;;8.27;5.07;;;;;;;16.02;66.77;96809.78;5025132;28;20060;-66
2022/05/14 04:48:38;;;;;;;8.23;4.57;;;;;;;16.20;66.74;96821.59;5040453;28;20485;-66
2022/05/14 04:51:05;;;;;;;7.80;4.78;;;;;;;16.48;65.25;96818.59;5025268;28;20053;-65
2022/05/14 04:53:32;;;;;;;6.68;5.05;;;;;;;16.56;65.15;96820.13;5025834;28;20052;-64
2022/05/14 04:55:58;;;;;;;6.38;4.38;;;;;;;16.75;64.24;96831.91;5026970;28;20056;-65
2022/05/14 04:58:25;;;;;;;6.35;4.82;;;;;;;16.13;64.31;96735.03;5025084;28;20476;-65
2022/05/14 05:00:52;;;;;;;8.27;5.68;;;;;;;16.77;65.22;96815.50;5025053;28;20056;-64
2022/05/14 05:03:19;;;;;;;11.60;4.38;;;;;;;16.85;65.31;96826.19;5007186;28;20081;-64
2022/05/14 05:05:52;;;;;;;10.07;5.55;;;;;;;16.80;65.17;96797.88;5008275;28;20417;-66
2022/05/14 05:08:21;;;;;;;8.10;4.57;;;;;;;17.04;64.59;96824.81;5007127;28;20061;-64
2022/05/14 05:10:48;;;;;;;7.03;4.95;;;;;;;17.29;64.31;96819.69;5006702;28;20069;-64
2022/05/14 05:13:19;;;;;;;6.65;4.20;;;;;;;17.41;62.80;96793.91;5025007;28;20057;-64
2022/05/14 05:15:45;;;;;;;5.68;3.85;;;;;;;17.72;61.65;96820.72;5006873;28;20072;-65
2022/05/14 05:18:13;;;;;;;5.03;3.88;;;;;;;17.92;60.14;96822.41;5024779;28;20060;-64
2022/05/14 05:20:42;;;;;;;6.43;3.85;;;;;;;18.06;59.21;96819.41;5024975;28;20454;-67
2022/05/14 05:23:12;;;;;;;5.55;3.63;;;;;;;18.35;57.87;96819.72;5024108;28;20503;-65
2022/05/14 05:25:39;;;;;;;7.65;4.25;;;;;;;18.20;57.43;96779.13;5008435;28;20062;-66
2022/05/14 05:28:06;;;;;;;6.90;4.05;;;;;;;18.43;56.69;96793.16;5004449;28;20058;-65
2022/05/14 05:30:32;;;;;;;13.88;4.07;;;;;;;18.11;57.21;96736.81;5004627;28;20064;-65
2022/05/14 05:32:59;;;;;;;7.30;4.03;;;;;;;18.70;57.07;96805.09;5019286;28;20054;-65
2022/05/14 05:35:26;;;;;;;9.65;4.53;;;;;;;18.38;56.35;96785.25;5004393;28;20508;-66
2022/05/14 05:37:53;;;;;;;9.63;3.50;;;;;;;18.76;55.23;96817.38;5004352;28;20058;-66
2022/05/14 05:40:19;;;;;;;6.15;4.22;;;;;;;18.42;56.21;96769.13;5004285;28;20057;-66
2022/05/14 05:42:46;;;;;;;4.03;3.40;;;;;;;18.31;55.54;96722.84;5003744;28;20056;-66
2022/05/14 05:45:16;;;;;;;4.57;3.50;;;;;;;19.12;55.01;96812.69;5004141;28;20583;-65
2022/05/14 05:47:43;;;;;;;5.43;4.15;;;;;;;19.26;54.83;96806.78;4986575;28;20058;-66
2022/05/14 05:50:11;;;;;;;7.93;3.50;;;;;;;18.24;54.53;96655.69;5004238;28;20504;-66
2022/05/14 05:52:38;;;;;;;6.78;3.42;;;;;;;19.43;54.01;96800.03;4986229;28;20057;-65
2022/05/14 05:57:51;;;;;;;8.27;3.83;;;;;;;19.89;53.51;96798.19;5028710;28;20052;-59
2022/05/14 06:00:24;;;;;;;7.80;4.00;;;;;;;19.19;53.05;96696.63;5013579;28;20087;-62
2022/05/14 06:02:52;;;;;;;6.20;3.88;;;;;;;19.85;54.51;96803.13;5035764;28;20049;-64
2022/05/14 06:05:19;;;;;;;8.52;3.75;;;;;;;20.04;55.03;96805.06;5027309;28;20055;-62
2022/05/14 06:07:46;;;;;;;5.47;4.30;;;;;;;20.52;54.10;96793.84;5015825;28;20045;-63
2022/05/14 06:10:15;;;;;;;4.97;4.05;;;;;;;21.21;52.06;96804.47;5012568;28;20055;-63
2022/05/14 06:12:42;;;;;;;4.68;3.92;;;;;;;21.75;51.02;96810.91;5034349;28;20057;-62
2022/05/14 06:15:11;;;;;;;8.25;3.80;;;;;;;22.19;49.85;96809.13;5033875;28;20060;-64
2022/05/14 06:17:40;;;;;;;6.70;4.72;;;;;;;22.38;49.13;96775.00;5027262;28;20052;-59
2022/05/14 06:20:10;;;;;;;10.25;5.93;;;;;;;23.04;47.83;96812.69;5031032;28;20049;-60
2022/05/14 06:22:37;;;;;;;10.60;4.28;;;;;;;23.22;47.81;96810.81;5033654;28;20574;-61
2022/05/14 06:25:06;;;;;;;8.63;4.53;;;;;;;23.06;47.92;96807.38;5025189;28;20049;-61
2022/05/14 06:27:33;;;;;;;6.28;4.25;;;;;;;22.91;48.10;96770.38;5023584;28;20149;-60
2022/05/14 06:30:00;;;;;;;5.35;3.97;;;;;;;23.25;47.18;96809.13;5023721;28;20056;-74
2022/05/14 06:32:27;;;;;;;9.75;4.57;;;;;;;23.19;46.67;96817.38;5038246;28;20088;-64
2022/05/14 06:34:53;;;;;;;7.13;4.78;;;;;;;23.10;47.41;96802.38;5023959;28;20061;-61
2022/05/14 06:37:20;;;;;;;11.20;4.00;;;;;;;23.41;45.62;96806.13;5008531;28;20062;-71
2022/05/14 06:39:47;;;;;;;7.10;4.03;;;;;;;23.79;44.83;96804.63;5005329;28;20417;-72
2022/05/14 06:42:14;;;;;;;5.25;3.75;;;;;;;23.53;44.45;96683.66;5007947;28;20050;-72
2022/05/14 06:44:41;;;;;;;4.72;3.25;;;;;;;24.64;43.81;96812.56;4990023;28;20093;-61
2022/05/14 06:47:07;;;;;;;8.75;4.18;;;;;;;24.07;45.09;96819.75;5017315;28;20060;-68
2022/05/14 06:49:36;;;;;;;5.32;3.85;;;;;;;23.25;46.70;96815.56;5035031;28;20041;-61
2022/05/14 06:52:05;;;;;;;4.55;3.80;;;;;;;23.37;46.84;96777.19;5011537;28;20060;-70
2022/05/14 06:54:36;;;;;;;6.03;4.22;;;;;;;24.13;45.59;96811.44;5030821;28;20045;-73
2022/05/14 06:57:05;;;;;;;4.88;3.88;;;;;;;24.32;44.96;96828.03;5036455;28;20509;-57
2022/05/14 06:59:33;;;;;;;4.47;4.07;;;;;;;23.71;46.05;96830.84;5030639;28;20057;-60
2022/05/14 07:02:01;;;;;;;6.53;4.55;;;;;;;22.74;50.13;96852.91;5030462;28;20056;-62
2022/05/14 07:07:13;;;;;;;8.00;3.83;;;;;;;21.00;55.25;96844.47;5026522;28;20051;-64
2022/05/14 07:09:40;;;;;;;7.43;4.72;;;;;;;20.40;53.82;96727.03;5030742;28;20140;-63
2022/05/14 07:12:09;;;;;;;6.38;4.05;;;;;;;20.97;54.48;96772.16;5041311;28;20530;-71
2022/05/14 07:14:40;;;;;;;4.97;3.63;;;;;;;21.83;53.94;96882.78;5020160;28;20458;-63
2022/05/14 07:17:08;;;;;;;10.55;4.40;;;;;;;21.88;53.98;96892.72;5034279;28;20060;-64
2022/05/14 07:19:36;;;;;;;6.97;4.60;;;;;;;21.67;53.26;96848.22;5025250;28;20049;-62
2022/05/14 07:22:04;;;;;;;5.70;3.72;;;;;;;21.90;53.22;96885.41;5039512;28;20055;-64
2022/05/14 07:24:31;;;;;;;6.60;3.83;;;;;;;21.51;53.66;96829.34;5025757;28;20057;-64
2022/05/14 07:27:00;;;;;;;5.70;3.78;;;;;;;21.64;52.17;96855.53;5018808;28;20060;-66
2022/05/14 07:29:29;;;;;;;5.82;4.65;;;;;;;21.68;53.18;96867.50;5037942;28;20049;-63
2022/05/14 07:31:55;;;;;;;6.78;3.58;;;;;;;21.83;52.96;96879.97;5012805;28;20053;-68
2022/05/14 07:34:23;;;;;;;4.43;3.75;;;;;;;21.94;52.78;96891.72;5034926;28;20053;-66
2022/05/14 07:37:06;;;;;;;8.98;4.72;;;;;;;21.51;55.58;96901.84;5031574;28;20138;-68
2022/05/14 07:39:40;;;;;;;9.02;5.10;;;;;;;21.31;56.80;96910.44;5032004;28;20057;-68
2022/05/14 07:42:13;;;;;;;5.20;4.40;;;;;;;21.40;55.78;96919.06;5029334;28;20107;-69
2022/05/14 07:44:44;;;;;;;8.55;4.53;;;;;;;21.21;56.77;96893.81;5026635;28;20456;-68
2022/05/14 07:47:12;;;;;;;5.78;4.05;;;;;;;21.25;59.59;96912.22;5025973;28;20634;-68
2022/05/14 07:49:42;;;;;;;6.72;4.65;;;;;;;21.21;62.52;96922.00;5027229;28;20486;-68
2022/05/14 07:52:09;;;;;;;13.85;5.20;;;;;;;21.12;63.28;96938.75;5025233;28;20057;-69
2022/05/14 07:54:35;;;;;;;6.13;5.30;;;;;;;20.85;64.28;96922.06;5026623;28;20531;-70
2022/05/14 07:57:06;;;;;;;8.63;5.70;;;;;;;20.77;67.94;96931.97;5025830;28;20053;-70
2022/05/14 07:59:35;;;;;;;11.35;5.68;;;;;;;20.50;68.59;96917.34;5008300;28;20053;-69
2022/05/14 08:02:07;;;;;;;9.68;5.55;;;;;;;19.54;71.61;96808.22;5025785;28;20068;-69
2022/05/14 08:04:33;;;;;;;9.55;5.88;;;;;;;19.79;74.71;96877.97;5041283;28;20518;-70
2022/05/14 08:07:00;;;;;;;8.13;5.88;;;;;;;20.09;76.28;96933.94;5007724;28;20062;-70
2022/05/14 08:09:27;;;;;;;13.60;6.95;;;;;;;19.91;80.74;96936.31;5004456;28;20053;-70
2022/05/14 08:11:54;;;;;;;10.30;6.95;;;;;;;19.65;83.58;96923.22;5005619;28;20065;-69
2022/05/14 08:14:20;;;;;;;8.82;6.60;;;;;;;19.70;82.98;96948.78;5004936;28;20053;-70
2022/05/14 08:16:47;;;;;;;10.75;7.60;;;;;;;19.78;84.86;96949.44;5005966;28;20125;-70
2022/05/14 08:19:14;;;;;;;8.13;6.45;;;;;;;19.90;85.60;96962.88;5006150;28;20152;-69
2022/05/14 08:24:34;;;;;;;9.05;6.30;;;;;;;19.46;87.78;96905.91;5005927;28;20057;-69
2022/05/14 08:27:04;;;;;;;8.38;6.03;;;;;;;19.74;87.82;96937.50;5005777;28;20575;-70
2022/05/14 08:29:38;;;;;;;8.52;5.97;;;;;;;19.86;89.09;96956.50;5006258;28;20049;-70
2022/05/14 08:32:05;;;;;;;9.10;6.20;;;;;;;20.02;89.83;96959.38;5005515;28;20058;-69
2022/05/14 08:34:32;;;;;;;9.65;6.25;;;;;;;19.86;83.82;96905.91;5020469;28;20677;-70
2022/05/14 08:37:04;;;;;;;7.90;5.97;;;;;;;19.81;82.28;96878.28;5005600;28;20053;-69
2022/05/14 08:39:30;;;;;;;6.80;5.45;;;;;;;20.35;80.21;96949.84;5005567;28;20528;-69
2022/05/14 08:41:58;;;;;;;7.63;5.10;;;;;;;19.78;81.80;96870.72;5005800;28;20061;-69
2022/05/14 08:44:30;;;;;;;6.10;5.35;;;;;;;20.13;82.79;96927.00;5005650;28;20516;-67
2022/05/14 08:47:03;;;;;;;8.38;5.03;;;;;;;20.02;80.60;96903.94;5005486;28;20057;-68
2022/05/14 08:49:36;;;;;;;;;;;;;;;20.49;79.47;96921.38;5020514;28;20141;-70
2022/05/14 08:52:11;;;;;;;15.48;5.28;;;;;;;20.19;79.64;96845.72;5005217;28;19925;-70
2022/05/14 08:54:38;;;;;;;4.65;3.75;;;;;;;20.59;74.02;96864.03;5005750;28;20058;-69
2022/05/14 08:57:13;;;;;;;5.55;3.85;;;;;;;21.19;73.25;96930.88;5005494;28;20049;-68
2022/05/14 08:59:47;;;;;;;3.60;3.20;;;;;;;21.28;72.63;96933.06;5004167;28;20062;-68
2022/05/14 09:02:28;;;;;;;4.72;3.85;;;;;;;21.56;71.31;96935.13;5004909;28;20428;-67
2022/05/14 09:05:06;;;;;;;5.70;3.83;;;;;;;21.76;69.14;96916.84;5005889;28;20049;-68
2022/05/14 09:07:34;;;;;;;4.88;3.20;;;;;;;21.86;67.65;96924.19;5024984;28;20060;-68
2022/05/14 09:10:21;;;;;;;3.95;3.42;;;;;;;21.89;67.63;96926.09;5012126;28;20056;-68
2022/05/14 09:13:01;;;;;;;4.50;3.50;;;;;;;22.10;65.93;96921.88;5005258;28;20413;-68
2022/05/14 09:15:32;;;;;;;3.55;3.25;;;;;;;22.43;65.34;96929.69;5004795;28;20445;-68
2022/05/14 09:18:25;;;;;;;3.67;3.38;;;;;;;22.19;64.31;96919.97;5005031;28;20057;-68
2022/05/14 09:21:05;;;;;;;4.85;3.67;;;;;;;21.99;63.68;96905.28;5000438;28;20057;-68
2022/05/14 09:23:44;;;;;;;5.35;3.20;;;;;;;22.26;61.55;96919.75;4987261;28;20076;-69
2022/05/14 09:26:14;;;;;;;4.43;3.20;;;;;;;22.13;59.63;96893.56;4987414;28;20058;-67
2022/05/14 09:28:45;;;;;;;3.58;2.95;;;;;;;22.69;60.99;96907.13;5004856;28;20148;-68
2022/05/14 09:31:27;;;;;;;3.42;3.10;;;;;;;23.13;58.89;96897.56;5004868;28;20080;-67
2022/05/14 09:34:14;;;;;;;3.70;2.63;;;;;;;23.27;56.67;96857.50;5024054;28;20060;-68
2022/05/14 09:36:43;;;;;;;2.70;2.50;;;;;;;23.87;54.64;96890.81;5024390;28;20143;-68
2022/05/14 09:39:15;;;;;;;4.50;2.72;;;;;;;24.06;52.92;96886.09;5024507;28;20057;-68
2022/05/14 09:42:28;;;;;;;5.00;3.17;;;;;;;24.31;50.71;96891.56;5022718;28;20435;-68
2022/05/14 09:44:57;;;;;;;3.53;2.58;;;;;;;23.82;52.50;96791.63;5000294;28;20053;-68
2022/05/14 09:47:26;;;;;;;2.97;2.70;;;;;;;24.29;51.66;96899.75;5013066;28;20101;-68
2022/05/14 09:49:55;;;;;;;5.00;3.35;;;;;;;24.36;54.00;96899.47;5029155;28;20053;-68
2022/05/14 09:52:29;;;;;;;4.30;3.20;;;;;;;24.26;55.28;96895.03;5022148;28;20057;-68
2022/05/14 09:54:57;;;;;;;4.47;3.30;;;;;;;23.95;53.57;96907.56;5039094;28;20145;-68
2022/05/14 09:57:55;;;;;;;4.57;4.00;;;;;;;24.24;53.58;96897.53;5021561;28;20073;-68
2022/05/14 10:00:54;;;;;;;3.90;3.58;;;;;;;23.94;51.98;96799.22;5021768;28;20100;-68
2022/05/14 10:03:55;;;;;;;5.97;3.47;;;;;;;24.38;51.19;96879.97;5020898;28;20057;-64
2022/05/14 10:06:41;;;;;;;4.68;3.63;;;;;;;24.38;51.51;96868.66;5020081;28;20512;-65
2022/05/14 10:09:36;;;;;;;11.23;3.80;;;;;;;24.53;50.97;96886.63;5021698;28;20049;-64
2022/05/14 10:12:31;;;;;;;4.00;3.45;;;;;;;24.69;49.47;96886.41;5021778;28;20104;-64
2022/05/14 10:15:17;;;;;;;4.32;3.40;;;;;;;25.08;49.52;96870.63;5022987;28;20061;-65
2022/05/14 10:18:04;;;;;;;4.25;3.58;;;;;;;25.00;50.33;96892.81;5024076;28;20064;-67
2022/05/14 10:20:52;;;;;;;4.72;3.70;;;;;;;24.95;49.72;96884.13;5024244;28;20135;-65
2022/05/14 10:27:22;;;;;;;7.38;3.20;;;;;;;25.26;49.47;96888.44;5004061;28;20054;-66
2022/05/14 10:30:08;;;;;;;4.93;3.55;;;;;;;24.79;50.80;96871.03;5004364;28;20050;-64
2022/05/14 10:32:45;;;;;;;3.45;3.15;;;;;;;24.40;49.97;96832.16;5003745;28;20054;-64
2022/05/14 10:35:35;;;;;;;3.97;3.60;;;;;;;24.28;49.78;96801.13;4986339;28;20115;-63
2022/05/14 10:38:45;;;;;;;5.00;3.70;;;;;;;24.74;49.32;96862.34;5003715;28;20058;-63
2022/05/14 10:41:37;;;;;;;6.53;3.20;;;;;;;24.74;49.29;96868.81;4996639;28;20054;-64
2022/05/14 10:44:10;;;;;;;5.70;4.13;;;;;;;24.86;48.95;96859.41;5003850;28;20050;-63
2022/05/14 10:46:40;;;;;;;3.67;3.30;;;;;;;24.55;49.20;96821.03;5003793;28;20062;-63
2022/05/14 10:49:26;;;;;;;5.72;3.30;;;;;;;24.55;49.44;96827.47;5003339;28;20061;-64
2022/05/14 10:51:56;;;;;;;6.13;3.40;;;;;;;25.05;50.02;96854.56;5003779;28;20058;-64
2022/05/14 10:54:32;;;;;;;4.82;3.55;;;;;;;25.25;48.38;96850.00;5003100;28;20304;-63
2022/05/14 10:57:19;;;;;;;3.92;3.05;;;;;;;24.91;48.76;96864.44;4985516;28;20124;-63
2022/05/14 11:00:19;;;;;;;4.32;3.92;;;;;;;24.77;50.23;96845.19;5003273;28;20054;-63
2022/05/14 11:03:26;;;;;;;4.78;3.42;;;;;;;25.06;49.19;96845.56;5003522;28;20061;-66
2022/05/14 11:06:38;;;;;;;4.88;3.13;;;;;;;25.37;49.97;96839.00;4997248;28;20046;-64
2022/05/14 11:09:21;;;;;;;3.85;3.55;;;;;;;25.48;49.18;96825.13;5022802;28;20119;-64
2022/05/14 11:12:07;;;;;;;3.88;3.40;;;;;;;25.54;48.25;96845.94;5023028;28;20061;-65
2022/05/14 11:14:36;;;;;;;;;;;;;;;25.52;49.35;96842.78;5014107;28;20061;-63
2022/05/14 11:17:03;;;;;;;4.15;3.47;;;;;;;25.49;49.50;96838.84;5003112;28;19925;-63
2022/05/14 11:19:34;;;;;;;4.18;3.40;;;;;;;25.16;48.44;96798.97;5003912;28;20444;-63
2022/05/14 11:22:02;;;;;;;3.58;3.25;;;;;;;23.90;47.46;96555.22;5003661;28;20124;-66
2022/05/14 11:24:38;;;;;;;3.13;2.92;;;;;;;25.35;47.38;96787.63;5003855;28;20132;-63
2022/05/14 11:27:07;;;;;;;3.50;3.20;;;;;;;25.74;49.23;96826.34;5006949;28;20053;-66
2022/05/14 11:29:48;;;;;;;4.22;3.85;;;;;;;25.63;50.74;96831.72;5007633;28;20049;-67
2022/05/14 11:32:18;;;;;;;4.53;3.80;;;;;;;25.62;52.27;96833.00;5006524;28;20060;-68
2022/05/14 11:35:01;;;;;;;4.88;3.88;;;;;;;25.08;52.92;96775.03;5006698;28;20582;-67
2022/05/14 11:37:34;;;;;;;4.28;3.88;;;;;;;24.99;52.38;96749.50;5007349;28;20128;-68
2022/05/14 11:40:19;;;;;;;5.28;3.90;;;;;;;25.40;49.75;96829.53;5006685;28;20065;-67
2022/05/14 11:43:06;;;;;;;3.97;3.58;;;;;;;25.41;49.79;96831.13;5006870;28;20053;-68
2022/05/14 11:45:34;;;;;;;4.03;3.60;;;;;;;25.29;50.44;96813.75;5006582;28;20053;-67
2022/05/14 11:48:10;;;;;;;3.67;3.35;;;;;;;25.53;49.52;96818.81;5006348;28;20056;-68
2022/05/14 11:50:56;;;;;;;3.25;2.92;;;;;;;25.11;46.15;96791.09;4989045;28;20127;-67
2022/05/14 11:53:34;;;;;;;3.50;3.20;;;;;;;25.30;47.72;96801.16;4988908;28;20061;-67
2022/05/14 11:56:10;;;;;;;4.70;3.33;;;;;;;25.80;47.17;96813.13;5006331;28;20073;-67
2022/05/14 11:58:58;;;;;;;3.20;2.90;;;;;;;25.75;47.20;96811.69;5006602;28;20057;-67
2022/05/14 12:01:31;;;;;;;5.28;3.05;;;;;;;25.81;46.47;96772.09;5005669;28;20475;-68
2022/05/14 12:04:01;;;;;;;5.10;3.13;;;;;;;26.09;46.71;96768.72;4988849;28;20057;-68
2022/05/14 12:07:19;;;;;;;4.28;3.13;;;;;;;26.54;43.80;96787.63;5008382;28;20054;-68
2022/05/14 12:10:04;;;;;;;3.72;3.42;;;;;;;26.73;42.89;96783.38;4981103;28;20054;-68
2022/05/14 12:12:54;;;;;;;3.60;3.30;;;;;;;26.98;43.03;96771.56;5005910;28;20193;-69